Pittsburgh, Pennsylvania
Traffic Map
Current Weather Conditions
Pittsburgh, Pennsylvania
Overcast
Overcast
37°
Feels Like: 29°
Wind Chill: 29° Ceiling: 4900
Heat Index: 37° Visibility: 10mi
Dew Point: 31° Wind: 12mph
Humidity: 79% Direction: 320° (NW)
Pressure: 30.07in Gusts: 22mph
Raw Report DataKAGC 210931Z 32010G19KT 260V340 10SM SCT024 OVC049 03/M01 A3007 RMK AO2 T00281006
Traffic Incident Summary
Active as of:
Severity:
Category:
InformationThere was an issue retrieving the traffic information for this location. Please try a different location or try again shortly.
Advertisements